Stanley Corner, South Dakota
Current Conditions -  °F | °C
As of 9:53 AM on Saturday 20 Dec 2014 (Local Time) from KMHE Reporting Station
Moderate Fog Moderate Fog  
Wind Chill: 17°   Ceiling: 200
Heat Index: 27°   Visibility: 0.25mi
Dew Point: 27°   Wind: 12mph
Humidity: 100%   Direction: 190°S
Pressure: 30.05"   Gusts: NA
Location:  43.5669°N, 97.5001°W
Report Text: KMHE 201553Z AUTO 19010KT 1/4SM FZFG VV002 M03/M03 A3005 RMK AO2 SNB29E40 SLP194 P0000 I1002 T10281028
Loading
Personal Weather Stations






























Interactive Weather Map New forecast layout! Learn more

10-Day Weather Forecast

Advertisements
Track Severe Weather on mobile